Calm Bay — 2HFU7 — position and weather

sailwx.info

Track history (hours):
 
Tides and Currents Weather Stations Pressure Air Temp Water Temp Dewpoint Dewpoint Depression Visibility Wind Speed Wind Dir Waves Ship Positions

Calm Bay

Last reported at 2017-Dec-29 08:34 UTC. Time now 2018-Jan-20 23:16 UTC.
Position N 29°34' W 093°17'.
Warning: this ship's position is 22 days out of date.

Length 177 m; draft 6.4 m.

Type: Cargo ship. MMSI: 235103314.

Date/timePositionNaut miles runAvg speedWind from/ knotsBaromVisibWave heightAir tempDewpointWater temp
2017-Dec-29 08:34N 29°34' W 093°17'1 7.1
2017-Dec-29 08:27N 29°35' W 093°18'5 9.0
2017-Dec-29 07:54N 29°39' W 093°20'410.5
2017-Dec-29 07:30N 29°43' W 093°20'5 9.7
2017-Dec-29 07:00N 29°48' W 093°21'5 9.7
2017-Dec-29 06:30N 29°53' W 093°21'5 9.5
2017-Dec-29 06:00N 29°58' W 093°20'4 8.1
2017-Dec-29 05:30N 30°02' W 093°20'4 8.0
2017-Dec-29 05:00N 30°06' W 093°20'3 6.7
2017-Dec-29 04:30N 30°09' W 093°20'3 5.6
2017-Dec-29 04:00N 30°11' W 093°18'2 4.7
2017-Dec-29 03:29N 30°13' W 093°15'0 0.0
2017-Dec-29 02:59N 30°13' W 093°15'0 0.0
2017-Dec-29 02:29N 30°13' W 093°15'0 0.0
2017-Dec-29 01:59N 30°13' W 093°15'0 0.0
2017-Dec-29 01:29N 30°13' W 093°15'0 0.0
2017-Dec-29 00:59N 30°13' W 093°15'0 0.0
2017-Dec-29 00:29N 30°13' W 093°15'0 0.0
2017-Dec-28 23:59N 30°13' W 093°15'0 0.0
2017-Dec-28 23:29N 30°13' W 093°15'0 0.0
2017-Dec-28 22:59N 30°13' W 093°15'0 0.0
2017-Dec-28 22:26N 30°13' W 093°15'0 0.0
2017-Dec-28 21:56N 30°13' W 093°15'0 0.0
2017-Dec-28 21:26N 30°13' W 093°15'0 0.0
2017-Dec-28 20:59N 30°13' W 093°15'0 0.0
2017-Dec-28 20:29N 30°13' W 093°15'0 0.0
2017-Dec-28 19:59N 30°13' W 093°15'0 0.0
2017-Dec-28 19:29N 30°13' W 093°15'0 0.0
2017-Dec-28 18:59N 30°13' W 093°15'0 0.0
2017-Dec-28 18:29N 30°13' W 093°15'0 0.0
2017-Dec-28 17:56N 30°13' W 093°15'0 0.0
2017-Dec-28 17:26N 30°13' W 093°15'0 0.0
2017-Dec-28 16:59N 30°13' W 093°15'0 0.0
2017-Dec-28 16:29N 30°13' W 093°15'0 0.0
2017-Dec-28 15:53N 30°13' W 093°15'0 0.0
2017-Dec-28 15:29N 30°13' W 093°15'0 0.0
2017-Dec-28 14:59N 30°13' W 093°15'0 0.0
2017-Dec-28 14:29N 30°13' W 093°15'0 0.0
2017-Dec-28 13:59N 30°13' W 093°15'0 0.0
2017-Dec-28 13:29N 30°13' W 093°15'0 0.0
2017-Dec-28 12:59N 30°13' W 093°15'0 0.0
2017-Dec-28 12:29N 30°13' W 093°15'0 0.0
2017-Dec-28 11:59N 30°13' W 093°15'0 0.0
2017-Dec-28 11:29N 30°13' W 093°15'0 0.0
2017-Dec-28 10:59N 30°13' W 093°15'0 0.0
2017-Dec-28 10:29N 30°13' W 093°15'0 0.0
2017-Dec-28 09:59N 30°13' W 093°15'0 0.0
2017-Dec-28 09:26N 30°13' W 093°15'0 0.0
2017-Dec-28 08:59N 30°13' W 093°15'0 0.0
2017-Dec-28 08:26N 30°13' W 093°15'0 0.0
2017-Dec-28 07:59N 30°13' W 093°15'0 0.0
2017-Dec-28 07:29N 30°13' W 093°15'0 0.0
2017-Dec-28 06:59N 30°13' W 093°15'0 0.0
2017-Dec-28 06:26N 30°13' W 093°15'0 0.0
2017-Dec-28 05:59N 30°13' W 093°15'0 0.0
2017-Dec-28 05:29N 30°13' W 093°15'0 0.0
2017-Dec-28 04:59N 30°13' W 093°15'0 0.0
2017-Dec-28 04:29N 30°13' W 093°15'0 0.0
2017-Dec-28 03:59N 30°13' W 093°15'0 0.0
2017-Dec-28 03:29N 30°13' W 093°15'0 0.0
2017-Dec-28 02:59N 30°13' W 093°15'0 0.0
2017-Dec-28 02:29N 30°13' W 093°15'0 0.0
2017-Dec-28 01:59N 30°13' W 093°15'0 0.0
2017-Dec-28 01:29N 30°13' W 093°15'0 0.0
2017-Dec-28 00:59N 30°13' W 093°15'0 0.0
2017-Dec-28 00:29N 30°13' W 093°15'0 0.0
2017-Dec-27 23:59N 30°13' W 093°15'0 0.0
2017-Dec-27 23:29N 30°13' W 093°15'0 0.0
2017-Dec-27 22:59N 30°13' W 093°15'0 0.0
2017-Dec-27 22:29N 30°13' W 093°15'0 0.0
2017-Dec-27 21:56N 30°13' W 093°15'0 0.0
2017-Dec-27 21:26N 30°13' W 093°15'0 0.0
2017-Dec-27 20:59N 30°13' W 093°15'0 0.0
2017-Dec-27 20:23N 30°13' W 093°15'0 0.0
2017-Dec-27 19:59N 30°13' W 093°15'0 0.0
2017-Dec-27 19:26N 30°13' W 093°15'0 0.0
2017-Dec-27 18:59N 30°13' W 093°15'0 0.0
2017-Dec-27 18:29N 30°13' W 093°15'0 0.0
2017-Dec-27 17:59N 30°13' W 093°15'0 0.0
2017-Dec-27 17:26N 30°13' W 093°15'0 0.0
2017-Dec-27 16:59N 30°13' W 093°15'0 0.0
2017-Dec-27 16:26N 30°13' W 093°15'0 0.0
2017-Dec-27 15:59N 30°13' W 093°15'0 0.0
2017-Dec-27 15:29N 30°13' W 093°15'0 0.0
2017-Dec-27 14:59N 30°13' W 093°15'0 0.0
2017-Dec-27 14:29N 30°13' W 093°15'0 0.0
2017-Dec-27 13:56N 30°13' W 093°15'0 0.0
2017-Dec-27 13:29N 30°13' W 093°15'0 0.0
2017-Dec-27 12:59N 30°13' W 093°15'0 0.0
2017-Dec-27 12:29N 30°13' W 093°15'0 0.0
2017-Dec-27 11:56N 30°13' W 093°15'0 0.0
2017-Dec-27 11:29N 30°13' W 093°15'0 0.0
2017-Dec-27 10:59N 30°13' W 093°15'0 0.0
2017-Dec-27 10:29N 30°13' W 093°15'0 0.0
2017-Dec-27 09:59N 30°13' W 093°15'0 0.0
2017-Dec-27 09:29N 30°13' W 093°15'0 0.0
2017-Dec-27 08:59N 30°13' W 093°15'0 0.0
2017-Dec-27 08:29N 30°13' W 093°15'0 0.0
2017-Dec-27 07:59N 30°13' W 093°15'0 0.0
2017-Dec-27 07:29N 30°13' W 093°15'0 0.0
2017-Dec-27 06:59N 30°13' W 093°15'0 0.0
2017-Dec-27 06:29N 30°13' W 093°15'0 0.0
2017-Dec-27 05:53N 30°13' W 093°15'0 0.0
2017-Dec-27 05:29N 30°13' W 093°15'0 0.0
2017-Dec-27 04:59N 30°13' W 093°15'0 0.0
2017-Dec-27 04:29N 30°13' W 093°15'0 0.0
2017-Dec-27 03:59N 30°13' W 093°15'0 0.0
2017-Dec-27 03:29N 30°13' W 093°15'0 0.0
2017-Dec-27 02:56N 30°13' W 093°15'0 0.0
2017-Dec-27 02:29N 30°13' W 093°15'0 0.0
2017-Dec-27 01:56N 30°13' W 093°15'0 0.0
2017-Dec-27 01:29N 30°13' W 093°15'0 0.0
2017-Dec-27 00:59N 30°13' W 093°15'0 0.0
2017-Dec-27 00:29N 30°13' W 093°15'0 0.0
2017-Dec-26 23:59N 30°13' W 093°15'0 0.0
2017-Dec-26 23:29N 30°13' W 093°15'0 0.0
2017-Dec-26 22:59N 30°13' W 093°15'0 0.0
2017-Dec-26 22:29N 30°13' W 093°15'0 0.0
2017-Dec-26 21:53N 30°13' W 093°15'0 0.0
2017-Dec-26 21:29N 30°13' W 093°15'0 0.0
2017-Dec-26 20:59N 30°13' W 093°15'0 0.0
2017-Dec-26 20:29N 30°13' W 093°15'0 0.0
2017-Dec-26 19:59N 30°13' W 093°15'0 0.0
2017-Dec-26 19:29N 30°13' W 093°15'0 0.0
2017-Dec-26 18:59N 30°13' W 093°15'0 0.0
2017-Dec-26 18:29N 30°13' W 093°15'0 0.0
2017-Dec-26 17:59N 30°13' W 093°15'0 0.0
2017-Dec-26 17:29N 30°13' W 093°15'0 0.0
2017-Dec-26 16:59N 30°13' W 093°15'0 0.0
2017-Dec-26 16:26N 30°13' W 093°15'0 0.0
2017-Dec-26 15:59N 30°13' W 093°15'0 0.0
2017-Dec-26 15:29N 30°13' W 093°15'0 0.0
2017-Dec-26 14:59N 30°13' W 093°15'0 0.0
2017-Dec-26 14:26N 30°13' W 093°15'0 0.0
2017-Dec-26 13:59N 30°13' W 093°15'0 0.0
2017-Dec-26 13:29N 30°13' W 093°15'0 0.0
2017-Dec-26 12:56N 30°13' W 093°15'0 0.0
2017-Dec-26 12:26N 30°13' W 093°15'0 0.0
2017-Dec-26 11:56N 30°13' W 093°15'0 0.0
2017-Dec-26 11:26N 30°13' W 093°15'0 0.0
2017-Dec-26 10:56N 30°13' W 093°15'0 0.0
2017-Dec-26 10:26N 30°13' W 093°15'0 0.0
2017-Dec-26 09:56N 30°13' W 093°15'0 0.0
2017-Dec-26 09:30N 30°13' W 093°15'1 2.2
2017-Dec-26 09:00N 30°12' W 093°17'2 4.0
2017-Dec-26 08:30N 30°11' W 093°18'2 4.0
2017-Dec-26 08:00N 30°09' W 093°20'2 4.9
2017-Dec-26 07:30N 30°07' W 093°20'3 6.9
2017-Dec-26 07:00N 30°03' W 093°20'4 7.5
2017-Dec-26 06:30N 29°60' W 093°20'5 9.3
2017-Dec-26 06:00N 29°55' W 093°20'5 9.2
2017-Dec-26 05:30N 29°50' W 093°21'5 9.4
2017-Dec-26 05:00N 29°46' W 093°21'5 8.6
2017-Dec-26 04:27N 29°41' W 093°20'3 5.7
2017-Dec-26 03:57N 29°38' W 093°19'2 4.3
2017-Dec-26 03:30N 29°38' W 093°17'1 1.0
2017-Dec-26 03:00N 29°38' W 093°16'0 0.3
2017-Dec-26 01:44N 29°37' W 093°16'0 0.0
2017-Dec-26 01:20N 29°37' W 093°16'0 0.0
2017-Dec-26 00:59N 29°37' W 093°16'0 0.0
2017-Dec-26 00:29N 29°37' W 093°16'0 0.0
2017-Dec-25 14:11N 29°37' W 093°16'0 0.1
2017-Dec-25 13:53N 29°37' W 093°16'0 0.0
2017-Dec-24 19:44N 29°37' W 093°16'0 0.0
2017-Dec-24 15:14N 29°37' W 093°16'0 0.0
2017-Dec-24 14:50N 29°37' W 093°16'0 0.0
2017-Dec-24 12:02N 29°37' W 093°16'0 0.0
2017-Dec-24 11:17N 29°37' W 093°16'0 0.0
2017-Dec-24 10:59N 29°37' W 093°16'0 0.0
2017-Dec-24 10:20N 29°37' W 093°16'0 0.0
2017-Dec-24 09:53N 29°37' W 093°16'0 0.0
2017-Dec-24 09:23N 29°37' W 093°16'0 0.0
2017-Dec-24 08:17N 29°37' W 093°16'0 0.0
2017-Dec-24 07:59N 29°37' W 093°16'0 0.0
2017-Dec-24 07:26N 29°37' W 093°16'0 0.0
2017-Dec-24 06:56N 29°37' W 093°16'0 0.0
2017-Dec-24 04:59N 29°37' W 093°16'5 4.1
2017-Dec-24 03:49N 29°33' W 093°14'310.5
2017-Dec-24 03:29N 29°30' W 093°13'12710.3
2017-Dec-23 15:12N 27°39' W 092°01'411.6
2017-Dec-23 14:53N 27°39' W 091°57'1011.9
2017-Dec-23 14:01N 27°38' W 091°45'1112.3
2017-Dec-23 13:09N 27°38' W 091°33'412.4
2017-Dec-23 12:51N 27°38' W 091°29'512.4
2017-Dec-23 12:29N 27°38' W 091°24'612.2
2017-Dec-23 11:59N 27°38' W 091°17'612.0
2017-Dec-23 11:29N 27°37' W 091°10'611.9
2017-Dec-23 10:59N 27°38' W 091°04'611.9
2017-Dec-23 10:29N 27°39' W 090°57'611.9
2017-Dec-23 10:00N 27°40' W 090°50'611.9
2017-Dec-23 09:30N 27°40' W 090°44'612.0
2017-Dec-23 08:59N 27°41' W 090°37'612.0
2017-Dec-23 08:29N 27°42' W 090°30'612.2
2017-Dec-23 08:00N 27°43' W 090°24'612.1
2017-Dec-23 07:30N 27°44' W 090°17'612.2
2017-Dec-23 07:00N 27°45' W 090°10'1012.1
2017-Dec-23 06:13N 27°47' W 089°59'312.3
2017-Dec-23 05:59N 27°47' W 089°56'612.2
2017-Dec-23 05:28N 27°47' W 089°49'2811.9
2017-Dec-23 03:05N 27°51' W 089°17'212.2
2017-Dec-23 02:58N 27°51' W 089°15'  
Track history (hours):
 
Tides and Currents Weather Stations Pressure Air Temp Water Temp Dewpoint Dewpoint Depression Visibility Wind Speed Wind Dir Waves Ship Positions

Calm Bay

Last reported at 2017-Dec-29 08:34 UTC. Time now 2018-Jan-20 23:16 UTC.
Position N 29°34' W 093°17'.
Warning: this ship's position is 22 days out of date.

Length 177 m; draft 6.4 m.

Type: Cargo ship. MMSI: 235103314.

Date/timePositionNaut miles runAvg speedWind from/ knotsBaromVisibWave heightAir tempDewpointWater temp
2017-Dec-29 08:34N 29°34' W 093°17'1 7.1
2017-Dec-29 08:27N 29°35' W 093°18'5 9.0
2017-Dec-29 07:54N 29°39' W 093°20'410.5
2017-Dec-29 07:30N 29°43' W 093°20'5 9.7
2017-Dec-29 07:00N 29°48' W 093°21'5 9.7
2017-Dec-29 06:30N 29°53' W 093°21'5 9.5
2017-Dec-29 06:00N 29°58' W 093°20'4 8.1
2017-Dec-29 05:30N 30°02' W 093°20'4 8.0
2017-Dec-29 05:00N 30°06' W 093°20'3 6.7
2017-Dec-29 04:30N 30°09' W 093°20'3 5.6
2017-Dec-29 04:00N 30°11' W 093°18'2 4.7
2017-Dec-29 03:29N 30°13' W 093°15'0 0.0
2017-Dec-29 02:59N 30°13' W 093°15'0 0.0
2017-Dec-29 02:29N 30°13' W 093°15'0 0.0
2017-Dec-29 01:59N 30°13' W 093°15'0 0.0
2017-Dec-29 01:29N 30°13' W 093°15'0 0.0
2017-Dec-29 00:59N 30°13' W 093°15'0 0.0
2017-Dec-29 00:29N 30°13' W 093°15'0 0.0
2017-Dec-28 23:59N 30°13' W 093°15'0 0.0
2017-Dec-28 23:29N 30°13' W 093°15'0 0.0
2017-Dec-28 22:59N 30°13' W 093°15'0 0.0
2017-Dec-28 22:26N 30°13' W 093°15'0 0.0
2017-Dec-28 21:56N 30°13' W 093°15'0 0.0
2017-Dec-28 21:26N 30°13' W 093°15'0 0.0
2017-Dec-28 20:59N 30°13' W 093°15'0 0.0
2017-Dec-28 20:29N 30°13' W 093°15'0 0.0
2017-Dec-28 19:59N 30°13' W 093°15'0 0.0
2017-Dec-28 19:29N 30°13' W 093°15'0 0.0
2017-Dec-28 18:59N 30°13' W 093°15'0 0.0
2017-Dec-28 18:29N 30°13' W 093°15'0 0.0
2017-Dec-28 17:56N 30°13' W 093°15'0 0.0
2017-Dec-28 17:26N 30°13' W 093°15'0 0.0
2017-Dec-28 16:59N 30°13' W 093°15'0 0.0
2017-Dec-28 16:29N 30°13' W 093°15'0 0.0
2017-Dec-28 15:53N 30°13' W 093°15'0 0.0
2017-Dec-28 15:29N 30°13' W 093°15'0 0.0
2017-Dec-28 14:59N 30°13' W 093°15'0 0.0
2017-Dec-28 14:29N 30°13' W 093°15'0 0.0
2017-Dec-28 13:59N 30°13' W 093°15'0 0.0
2017-Dec-28 13:29N 30°13' W 093°15'0 0.0
2017-Dec-28 12:59N 30°13' W 093°15'0 0.0
2017-Dec-28 12:29N 30°13' W 093°15'0 0.0
2017-Dec-28 11:59N 30°13' W 093°15'0 0.0
2017-Dec-28 11:29N 30°13' W 093°15'0 0.0
2017-Dec-28 10:59N 30°13' W 093°15'0 0.0
2017-Dec-28 10:29N 30°13' W 093°15'0 0.0
2017-Dec-28 09:59N 30°13' W 093°15'0 0.0
2017-Dec-28 09:26N 30°13' W 093°15'0 0.0
2017-Dec-28 08:59N 30°13' W 093°15'0 0.0
2017-Dec-28 08:26N 30°13' W 093°15'0 0.0
2017-Dec-28 07:59N 30°13' W 093°15'0 0.0
2017-Dec-28 07:29N 30°13' W 093°15'0 0.0
2017-Dec-28 06:59N 30°13' W 093°15'0 0.0
2017-Dec-28 06:26N 30°13' W 093°15'0 0.0
2017-Dec-28 05:59N 30°13' W 093°15'0 0.0
2017-Dec-28 05:29N 30°13' W 093°15'0 0.0
2017-Dec-28 04:59N 30°13' W 093°15'0 0.0
2017-Dec-28 04:29N 30°13' W 093°15'0 0.0
2017-Dec-28 03:59N 30°13' W 093°15'0 0.0
2017-Dec-28 03:29N 30°13' W 093°15'0 0.0
2017-Dec-28 02:59N 30°13' W 093°15'0 0.0
2017-Dec-28 02:29N 30°13' W 093°15'0 0.0
2017-Dec-28 01:59N 30°13' W 093°15'0 0.0
2017-Dec-28 01:29N 30°13' W 093°15'0 0.0
2017-Dec-28 00:59N 30°13' W 093°15'0 0.0
2017-Dec-28 00:29N 30°13' W 093°15'0 0.0
2017-Dec-27 23:59N 30°13' W 093°15'0 0.0
2017-Dec-27 23:29N 30°13' W 093°15'0 0.0
2017-Dec-27 22:59N 30°13' W 093°15'0 0.0
2017-Dec-27 22:29N 30°13' W 093°15'0 0.0
2017-Dec-27 21:56N 30°13' W 093°15'0 0.0
2017-Dec-27 21:26N 30°13' W 093°15'0 0.0
2017-Dec-27 20:59N 30°13' W 093°15'0 0.0
2017-Dec-27 20:23N 30°13' W 093°15'0 0.0
2017-Dec-27 19:59N 30°13' W 093°15'0 0.0
2017-Dec-27 19:26N 30°13' W 093°15'0 0.0
2017-Dec-27 18:59N 30°13' W 093°15'0 0.0
2017-Dec-27 18:29N 30°13' W 093°15'0 0.0
2017-Dec-27 17:59N 30°13' W 093°15'0 0.0
2017-Dec-27 17:26N 30°13' W 093°15'0 0.0
2017-Dec-27 16:59N 30°13' W 093°15'0 0.0
2017-Dec-27 16:26N 30°13' W 093°15'0 0.0
2017-Dec-27 15:59N 30°13' W 093°15'0 0.0
2017-Dec-27 15:29N 30°13' W 093°15'0 0.0
2017-Dec-27 14:59N 30°13' W 093°15'0 0.0
2017-Dec-27 14:29N 30°13' W 093°15'0 0.0
2017-Dec-27 13:56N 30°13' W 093°15'0 0.0
2017-Dec-27 13:29N 30°13' W 093°15'0 0.0
2017-Dec-27 12:59N 30°13' W 093°15'0 0.0
2017-Dec-27 12:29N 30°13' W 093°15'0 0.0
2017-Dec-27 11:56N 30°13' W 093°15'0 0.0
2017-Dec-27 11:29N 30°13' W 093°15'0 0.0
2017-Dec-27 10:59N 30°13' W 093°15'0 0.0
2017-Dec-27 10:29N 30°13' W 093°15'0 0.0
2017-Dec-27 09:59N 30°13' W 093°15'0 0.0
2017-Dec-27 09:29N 30°13' W 093°15'0 0.0
2017-Dec-27 08:59N 30°13' W 093°15'0 0.0
2017-Dec-27 08:29N 30°13' W 093°15'0 0.0
2017-Dec-27 07:59N 30°13' W 093°15'0 0.0
2017-Dec-27 07:29N 30°13' W 093°15'0 0.0
2017-Dec-27 06:59N 30°13' W 093°15'0 0.0
2017-Dec-27 06:29N 30°13' W 093°15'0 0.0
2017-Dec-27 05:53N 30°13' W 093°15'0 0.0
2017-Dec-27 05:29N 30°13' W 093°15'0 0.0
2017-Dec-27 04:59N 30°13' W 093°15'0 0.0
2017-Dec-27 04:29N 30°13' W 093°15'0 0.0
2017-Dec-27 03:59N 30°13' W 093°15'0 0.0
2017-Dec-27 03:29N 30°13' W 093°15'0 0.0
2017-Dec-27 02:56N 30°13' W 093°15'0 0.0
2017-Dec-27 02:29N 30°13' W 093°15'0 0.0
2017-Dec-27 01:56N 30°13' W 093°15'0 0.0
2017-Dec-27 01:29N 30°13' W 093°15'0 0.0
2017-Dec-27 00:59N 30°13' W 093°15'0 0.0
2017-Dec-27 00:29N 30°13' W 093°15'0 0.0
2017-Dec-26 23:59N 30°13' W 093°15'0 0.0
2017-Dec-26 23:29N 30°13' W 093°15'0 0.0
2017-Dec-26 22:59N 30°13' W 093°15'0 0.0
2017-Dec-26 22:29N 30°13' W 093°15'0 0.0
2017-Dec-26 21:53N 30°13' W 093°15'0 0.0
2017-Dec-26 21:29N 30°13' W 093°15'0 0.0
2017-Dec-26 20:59N 30°13' W 093°15'0 0.0
2017-Dec-26 20:29N 30°13' W 093°15'0 0.0
2017-Dec-26 19:59N 30°13' W 093°15'0 0.0
2017-Dec-26 19:29N 30°13' W 093°15'0 0.0
2017-Dec-26 18:59N 30°13' W 093°15'0 0.0
2017-Dec-26 18:29N 30°13' W 093°15'0 0.0
2017-Dec-26 17:59N 30°13' W 093°15'0 0.0
2017-Dec-26 17:29N 30°13' W 093°15'0 0.0
2017-Dec-26 16:59N 30°13' W 093°15'0 0.0
2017-Dec-26 16:26N 30°13' W 093°15'0 0.0
2017-Dec-26 15:59N 30°13' W 093°15'0 0.0
2017-Dec-26 15:29N 30°13' W 093°15'0 0.0
2017-Dec-26 14:59N 30°13' W 093°15'0 0.0
2017-Dec-26 14:26N 30°13' W 093°15'0 0.0
2017-Dec-26 13:59N 30°13' W 093°15'0 0.0
2017-Dec-26 13:29N 30°13' W 093°15'0 0.0
2017-Dec-26 12:56N 30°13' W 093°15'0 0.0
2017-Dec-26 12:26N 30°13' W 093°15'0 0.0
2017-Dec-26 11:56N 30°13' W 093°15'0 0.0
2017-Dec-26 11:26N 30°13' W 093°15'0 0.0
2017-Dec-26 10:56N 30°13' W 093°15'0 0.0
2017-Dec-26 10:26N 30°13' W 093°15'0 0.0
2017-Dec-26 09:56N 30°13' W 093°15'0 0.0
2017-Dec-26 09:30N 30°13' W 093°15'1 2.2
2017-Dec-26 09:00N 30°12' W 093°17'2 4.0
2017-Dec-26 08:30N 30°11' W 093°18'2 4.0
2017-Dec-26 08:00N 30°09' W 093°20'2 4.9
2017-Dec-26 07:30N 30°07' W 093°20'3 6.9
2017-Dec-26 07:00N 30°03' W 093°20'4 7.5
2017-Dec-26 06:30N 29°60' W 093°20'5 9.3
2017-Dec-26 06:00N 29°55' W 093°20'5 9.2
2017-Dec-26 05:30N 29°50' W 093°21'5 9.4
2017-Dec-26 05:00N 29°46' W 093°21'5 8.6
2017-Dec-26 04:27N 29°41' W 093°20'3 5.7
2017-Dec-26 03:57N 29°38' W 093°19'2 4.3
2017-Dec-26 03:30N 29°38' W 093°17'1 1.0
2017-Dec-26 03:00N 29°38' W 093°16'0 0.3
2017-Dec-26 01:44N 29°37' W 093°16'0 0.0
2017-Dec-26 01:20N 29°37' W 093°16'0 0.0
2017-Dec-26 00:59N 29°37' W 093°16'0 0.0
2017-Dec-26 00:29N 29°37' W 093°16'0 0.0
2017-Dec-25 14:11N 29°37' W 093°16'0 0.1
2017-Dec-25 13:53N 29°37' W 093°16'0 0.0
2017-Dec-24 19:44N 29°37' W 093°16'0 0.0
2017-Dec-24 15:14N 29°37' W 093°16'0 0.0
2017-Dec-24 14:50N 29°37' W 093°16'0 0.0
2017-Dec-24 12:02N 29°37' W 093°16'0 0.0
2017-Dec-24 11:17N 29°37' W 093°16'0 0.0
2017-Dec-24 10:59N 29°37' W 093°16'0 0.0
2017-Dec-24 10:20N 29°37' W 093°16'0 0.0
2017-Dec-24 09:53N 29°37' W 093°16'0 0.0
2017-Dec-24 09:23N 29°37' W 093°16'0 0.0
2017-Dec-24 08:17N 29°37' W 093°16'0 0.0
2017-Dec-24 07:59N 29°37' W 093°16'0 0.0
2017-Dec-24 07:26N 29°37' W 093°16'0 0.0
2017-Dec-24 06:56N 29°37' W 093°16'0 0.0
2017-Dec-24 04:59N 29°37' W 093°16'5 4.1
2017-Dec-24 03:49N 29°33' W 093°14'310.5
2017-Dec-24 03:29N 29°30' W 093°13'12710.3
2017-Dec-23 15:12N 27°39' W 092°01'411.6
2017-Dec-23 14:53N 27°39' W 091°57'1011.9
2017-Dec-23 14:01N 27°38' W 091°45'1112.3
2017-Dec-23 13:09N 27°38' W 091°33'412.4
2017-Dec-23 12:51N 27°38' W 091°29'512.4
2017-Dec-23 12:29N 27°38' W 091°24'612.2
2017-Dec-23 11:59N 27°38' W 091°17'612.0
2017-Dec-23 11:29N 27°37' W 091°10'611.9
2017-Dec-23 10:59N 27°38' W 091°04'611.9
2017-Dec-23 10:29N 27°39' W 090°57'611.9
2017-Dec-23 10:00N 27°40' W 090°50'611.9
2017-Dec-23 09:30N 27°40' W 090°44'612.0
2017-Dec-23 08:59N 27°41' W 090°37'612.0
2017-Dec-23 08:29N 27°42' W 090°30'612.2
2017-Dec-23 08:00N 27°43' W 090°24'612.1
2017-Dec-23 07:30N 27°44' W 090°17'612.2
2017-Dec-23 07:00N 27°45' W 090°10'1012.1
2017-Dec-23 06:13N 27°47' W 089°59'312.3
2017-Dec-23 05:59N 27°47' W 089°56'612.2
2017-Dec-23 05:28N 27°47' W 089°49'2811.9
2017-Dec-23 03:05N 27°51' W 089°17'212.2
2017-Dec-23 02:58N 27°51' W 089°15'  

Dump ship's entire track history